Time;durP1;ratioP1;P1;durP2;ratioP2;P2;SDS_P1;SDS_P2;PMS_P1;PMS_P2;Temp;Humidity;BMP_temperature;BMP_pressure;BME280_temperature;BME280_humidity;BME280_pressure;Samples;Min_cycle;Max_cycle;Signal;HPM_P1;HPM_P2
2021/12/07 00:01:59;;;;;;;0.50;0.10;;;4.60;1.00;;;;;;5072774;28;20461;-71
2021/12/07 00:04:28;;;;;;;0.50;0.10;;;4.50;1.00;;;;;;5073989;28;20478;-72
2021/12/07 00:06:56;;;;;;;0.50;0.10;;;4.50;1.00;;;;;;5074366;28;20536;-72
2021/12/07 00:09:25;;;;;;;0.50;0.10;;;4.50;1.00;;;;;;5073879;28;20488;-72
2021/12/07 00:11:56;;;;;;;0.50;0.10;;;4.40;1.00;;;;;;5074968;28;20442;-70
2021/12/07 00:14:25;;;;;;;0.50;0.10;;;4.40;1.00;;;;;;5074149;28;20830;-72
2021/12/07 00:16:55;;;;;;;0.50;0.10;;;4.40;1.00;;;;;;5073436;28;20481;-71
2021/12/07 00:19:23;;;;;;;0.50;0.10;;;4.30;1.00;;;;;;5073112;28;20462;-72
2021/12/07 00:21:52;;;;;;;0.50;0.10;;;4.30;1.00;;;;;;5073337;28;20458;-71
2021/12/07 00:24:20;;;;;;;0.50;0.10;;;4.20;1.00;;;;;;5072316;28;20502;-70
2021/12/07 00:26:50;;;;;;;0.50;0.10;;;4.20;1.00;;;;;;5073884;28;20440;-68
2021/12/07 00:29:19;;;;;;;0.60;0.30;;;4.10;1.00;;;;;;5074348;28;20461;-72
2021/12/07 00:31:53;;;;;;;0.50;0.10;;;4.00;1.00;;;;;;5074041;28;20471;-73
2021/12/07 00:34:40;;;;;;;0.50;0.10;;;4.10;1.00;;;;;;5073335;28;20916;-71
2021/12/07 00:37:09;;;;;;;0.50;0.10;;;4.10;1.00;;;;;;5054689;28;20444;-71
2021/12/07 00:39:37;;;;;;;0.60;0.47;;;4.10;1.00;;;;;;5061412;28;20477;-72
2021/12/07 00:42:07;;;;;;;0.50;0.10;;;4.00;1.00;;;;;;5074563;28;20446;-71
2021/12/07 00:44:35;;;;;;;0.50;0.10;;;4.00;1.00;;;;;;5075346;28;20476;-70
2021/12/07 00:47:03;;;;;;;0.50;0.10;;;4.00;1.00;;;;;;5073187;28;20454;-70
2021/12/07 00:49:31;;;;;;;0.50;0.10;;;4.00;1.00;;;;;;5072565;28;20965;-70
2021/12/07 00:51:59;;;;;;;0.50;0.10;;;3.90;1.00;;;;;;5072631;28;20441;-72
2021/12/07 00:54:27;;;;;;;0.50;0.10;;;4.00;1.00;;;;;;5072588;28;20452;-72
2021/12/07 00:56:55;;;;;;;0.50;0.10;;;4.00;1.00;;;;;;5072358;28;20447;-70
2021/12/07 00:59:25;;;;;;;0.50;0.13;;;3.90;1.00;;;;;;5074425;28;20480;-70
2021/12/07 01:01:53;;;;;;;0.50;0.10;;;3.90;1.00;;;;;;5084890;28;20458;-71
2021/12/07 01:04:22;;;;;;;0.50;0.10;;;3.90;1.00;;;;;;5074860;28;20492;-72
2021/12/07 01:07:01;;;;;;;0.50;0.10;;;3.90;1.00;;;;;;5073467;28;20441;-71
2021/12/07 01:09:36;;;;;;;0.50;0.10;;;3.90;1.00;;;;;;5076317;28;20463;-72
2021/12/07 01:25:58;;;;;;;0.50;0.10;;;3.90;1.00;;;;;;5076178;28;20489;-71
2021/12/07 01:28:31;;;;;;;0.50;0.10;;;3.90;1.00;;;;;;5075892;28;20472;-71
2021/12/07 01:31:10;;;;;;;0.50;0.10;;;4.00;1.00;;;;;;5079418;28;20442;-72
2021/12/07 01:34:09;;;;;;;0.50;0.10;;;4.00;1.00;;;;;;5078372;28;20442;-70
2021/12/07 01:36:50;;;;;;;0.50;0.10;;;4.00;1.00;;;;;;5075825;28;20451;-71
2021/12/07 01:39:38;;;;;;;0.50;0.10;;;4.00;1.00;;;;;;5075235;28;20478;-72
2021/12/07 01:45:17;;;;;;;0.50;0.10;;;4.00;1.00;;;;;;5065413;28;20482;-70
2021/12/07 01:47:56;;;;;;;0.50;0.10;;;4.00;1.00;;;;;;5062936;28;20470;-72
2021/12/07 02:01:16;;;;;;;0.50;0.10;;;4.10;1.00;;;;;;5074524;28;20467;-72
2021/12/07 02:03:46;;;;;;;0.50;0.10;;;4.10;1.00;;;;;;5075201;28;20823;-72
2021/12/07 02:06:14;;;;;;;0.50;0.10;;;4.10;1.00;;;;;;5075411;28;20805;-71
2021/12/07 02:08:42;;;;;;;0.50;0.10;;;4.10;1.00;;;;;;5075570;28;20467;-72
2021/12/07 02:11:10;;;;;;;0.50;0.10;;;4.00;1.00;;;;;;5075515;28;20810;-71
2021/12/07 02:16:27;;;;;;;0.50;0.10;;;4.00;1.00;;;;;;5076006;28;20443;-72
2021/12/07 02:18:56;;;;;;;0.50;0.10;;;3.90;1.00;;;;;;5074210;28;20468;-71
2021/12/07 02:21:27;;;;;;;0.50;0.10;;;3.90;1.00;;;;;;5075345;28;20434;-72
2021/12/07 02:23:55;;;;;;;0.50;0.10;;;3.90;1.00;;;;;;5075153;28;20480;-71
2021/12/07 02:26:23;;;;;;;0.50;0.10;;;3.90;1.00;;;;;;5075007;28;20442;-71
2021/12/07 02:28:52;;;;;;;0.60;0.47;;;3.80;1.00;;;;;;5075376;28;20469;-70
2021/12/07 02:31:21;;;;;;;0.50;0.20;;;3.70;1.00;;;;;;5074547;28;20521;-72
2021/12/07 02:33:49;;;;;;;0.50;0.20;;;3.70;1.00;;;;;;5074750;28;20992;-71
2021/12/07 02:36:17;;;;;;;0.50;0.10;;;3.70;1.00;;;;;;5075080;28;20469;-70
2021/12/07 02:38:47;;;;;;;1.33;0.20;;;3.60;1.00;;;;;;5054050;22;20502;-68
2021/12/07 02:41:15;;;;;;;4.53;0.70;;;3.70;1.00;;;;;;4972765;28;20658;-68
2021/12/07 02:43:44;;;;;;;1.10;0.93;;;3.60;1.00;;;;;;4972054;28;20497;-68
2021/12/07 02:46:12;;;;;;;0.50;0.10;;;3.60;1.00;;;;;;4972486;28;20450;-69
2021/12/07 02:48:40;;;;;;;0.60;0.57;;;3.60;1.00;;;;;;4972899;28;20470;-68
2021/12/07 02:51:08;;;;;;;1.03;0.93;;;3.70;1.00;;;;;;4972118;28;20451;-67
2021/12/07 02:53:37;;;;;;;0.50;0.20;;;3.70;1.00;;;;;;4962988;28;20453;-68
2021/12/07 02:56:08;;;;;;;0.50;0.20;;;3.70;1.00;;;;;;4952736;28;20450;-68
2021/12/07 02:58:41;;;;;;;0.70;0.70;;;3.80;1.00;;;;;;4952688;28;20472;-68
2021/12/07 03:01:15;;;;;;;5.13;1.73;;;3.70;1.00;;;;;;4959997;28;20453;-68
2021/12/07 03:03:53;;;;;;;0.60;0.20;;;3.80;1.00;;;;;;4961866;28;20464;-67
2021/12/07 03:06:28;;;;;;;0.70;0.50;;;3.80;1.00;;;;;;4971358;28;20806;-68
2021/12/07 03:09:35;;;;;;;2.10;1.50;;;3.90;1.00;;;;;;4971659;28;20465;-68
2021/12/07 03:26:01;;;;;;;2.00;1.43;;;3.90;1.00;;;;;;4971683;28;20483;-68
2021/12/07 03:28:31;;;;;;;0.87;0.70;;;3.90;1.00;;;;;;4971784;28;20462;-68
2021/12/07 03:30:59;;;;;;;0.90;0.60;;;3.90;1.00;;;;;;4971361;28;20440;-68
2021/12/07 03:33:27;;;;;;;0.50;0.10;;;4.00;1.00;;;;;;4964373;28;20493;-68
2021/12/07 03:35:56;;;;;;;0.60;0.30;;;4.00;1.00;;;;;;4951302;28;20840;-68
2021/12/07 03:38:24;;;;;;;0.87;0.87;;;4.10;1.00;;;;;;4949230;29;20499;-69
2021/12/07 03:40:52;;;;;;;0.60;0.30;;;4.10;1.00;;;;;;4964811;28;20447;-69
2021/12/07 03:43:20;;;;;;;1.00;0.90;;;4.10;1.00;;;;;;4952027;28;20462;-69
2021/12/07 03:45:49;;;;;;;0.90;0.40;;;4.10;1.00;;;;;;4951935;28;20490;-70
2021/12/07 03:48:18;;;;;;;1.40;0.40;;;4.10;1.00;;;;;;4951721;28;20551;-67
2021/12/07 03:50:46;;;;;;;12.07;1.97;;;4.10;1.00;;;;;;4951812;28;20445;-69
2021/12/07 03:53:15;;;;;;;1.33;0.70;;;4.10;1.00;;;;;;4952053;28;20950;-68
2021/12/07 03:55:42;;;;;;;3.43;0.93;;;4.10;1.00;;;;;;4952030;29;20446;-68
2021/12/07 03:58:10;;;;;;;1.80;0.97;;;4.20;1.00;;;;;;4952230;29;20479;-67
2021/12/07 04:00:41;;;;;;;1.00;0.77;;;;;;;;;;4951785;29;20468;-67
2021/12/07 04:03:13;;;;;;;0.80;0.53;;;4.30;1.00;;;;;;4954762;28;20450;-68
2021/12/07 04:05:47;;;;;;;0.50;0.10;;;4.40;1.00;;;;;;4971044;28;20549;-69
2021/12/07 04:08:17;;;;;;;0.97;0.87;;;4.40;1.00;;;;;;4969738;28;20495;-68
2021/12/07 04:10:45;;;;;;;0.70;0.50;;;4.40;1.00;;;;;;4951426;29;20442;-68
2021/12/07 04:13:13;;;;;;;1.20;0.57;;;4.40;1.00;;;;;;4939804;28;20972;-68
2021/12/07 04:15:41;;;;;;;0.70;0.40;;;4.40;1.00;;;;;;4971358;28;20440;-68
2021/12/07 04:18:11;;;;;;;0.60;0.40;;;4.50;1.00;;;;;;4970965;28;20472;-69
2021/12/07 04:20:39;;;;;;;0.70;0.30;;;4.60;1.00;;;;;;4970696;28;20445;-67
2021/12/07 04:23:08;;;;;;;0.60;0.27;;;4.60;1.00;;;;;;4970604;28;20452;-68
2021/12/07 04:25:37;;;;;;;0.50;0.10;;;4.60;1.00;;;;;;4970636;28;20899;-68
2021/12/07 04:28:06;;;;;;;1.33;0.87;;;4.70;1.00;;;;;;4970422;28;20479;-67
2021/12/07 04:30:36;;;;;;;0.80;0.67;;;4.70;1.00;;;;;;4958878;28;20459;-67
2021/12/07 04:33:07;;;;;;;0.83;0.53;;;4.70;1.00;;;;;;4952961;28;20444;-69
2021/12/07 04:35:37;;;;;;;0.90;0.77;;;4.70;1.00;;;;;;4970846;28;20923;-69
2021/12/07 04:38:05;;;;;;;1.97;0.30;;;4.80;1.00;;;;;;4970350;28;20498;-68
2021/12/07 04:40:35;;;;;;;0.60;0.30;;;4.80;1.00;;;;;;4969942;28;20456;-70
2021/12/07 04:43:03;;;;;;;0.60;0.20;;;4.80;1.00;;;;;;4968037;28;20454;-68
2021/12/07 04:45:38;;;;;;;1.00;0.87;;;4.80;1.00;;;;;;4951225;28;20678;-68
2021/12/07 04:48:32;;;;;;;8.53;1.57;;;4.90;1.00;;;;;;4950942;28;20508;-68
2021/12/07 04:59:19;;;;;;;0.80;0.60;;;4.90;1.00;;;;;;4969852;28;20462;-69
2021/12/07 05:01:48;;;;;;;0.50;0.10;;;4.90;1.00;;;;;;4970519;28;20547;-69
2021/12/07 05:04:21;;;;;;;0.60;0.50;;;4.90;1.00;;;;;;4959664;28;20866;-69
2021/12/07 05:06:54;;;;;;;4.47;0.87;;;4.90;1.00;;;;;;4951075;28;20510;-69
2021/12/07 05:09:39;;;;;;;0.83;0.83;;;4.90;1.00;;;;;;4950624;28;20479;-69
2021/12/07 05:12:27;;;;;;;0.50;0.10;;;5.00;1.00;;;;;;4950811;28;20832;-69
2021/12/07 05:15:02;;;;;;;0.50;0.27;;;5.00;1.00;;;;;;4966422;28;20452;-69
2021/12/07 05:39:37;;;;;;;0.50;0.10;;;5.10;1.00;;;;;;4969976;28;20486;-70
2021/12/07 05:42:05;;;;;;;0.50;0.20;;;5.20;1.00;;;;;;4970220;28;20462;-69
2021/12/07 05:44:33;;;;;;;0.60;0.37;;;5.20;1.00;;;;;;4958363;28;20471;-69
2021/12/07 05:47:01;;;;;;;0.50;0.10;;;5.30;1.00;;;;;;4950426;28;20560;-69
2021/12/07 05:49:29;;;;;;;0.50;0.20;;;5.30;1.00;;;;;;4950231;28;20475;-69
2021/12/07 05:51:57;;;;;;;0.50;0.10;;;5.40;1.00;;;;;;4950581;28;20449;-70
2021/12/07 05:54:25;;;;;;;0.50;0.10;;;5.40;1.00;;;;;;4963985;28;20748;-69
2021/12/07 05:56:54;;;;;;;9.03;7.77;;;5.40;1.00;;;;;;4974041;28;20443;-69
2021/12/07 05:59:23;;;;;;;0.50;0.10;;;6.30;1.00;;;;;;4973152;28;20475;-68
2021/12/07 06:01:51;;;;;;;0.93;0.50;;;5.30;1.00;;;;;;4973098;28;20449;-68
2021/12/07 06:04:19;;;;;;;0.50;0.20;;;5.30;1.00;;;;;;4963204;28;20458;-68
2021/12/07 06:06:47;;;;;;;0.50;0.20;;;5.30;1.00;;;;;;4953158;28;21082;-69
2021/12/07 06:09:15;;;;;;;0.93;0.30;;;5.30;1.00;;;;;;4952832;29;20472;-68
2021/12/07 06:11:44;;;;;;;0.50;0.10;;;5.30;1.00;;;;;;4953194;28;20457;-73
2021/12/07 06:14:18;;;;;;;0.83;0.77;;;5.30;1.00;;;;;;4954281;28;20451;-68
2021/12/07 06:16:46;;;;;;;0.93;0.93;;;5.30;1.00;;;;;;4973010;28;20436;-69
2021/12/07 06:19:14;;;;;;;0.50;0.20;;;5.40;1.00;;;;;;4961311;28;20498;-69
2021/12/07 06:21:42;;;;;;;0.80;0.30;;;5.30;1.00;;;;;;4953422;28;20476;-69
2021/12/07 06:24:10;;;;;;;1.47;0.60;;;5.30;1.00;;;;;;4961627;28;20542;-70
2021/12/07 06:26:38;;;;;;;0.73;0.57;;;5.30;1.00;;;;;;4972000;28;20481;-69
2021/12/07 06:29:06;;;;;;;0.90;0.77;;;5.30;1.00;;;;;;4972422;28;20558;-69
2021/12/07 06:31:35;;;;;;;0.93;0.60;;;5.30;1.00;;;;;;4972753;28;20934;-68
2021/12/07 06:34:03;;;;;;;0.50;0.10;;;5.30;1.00;;;;;;4964809;28;20479;-69
2021/12/07 06:36:31;;;;;;;0.60;0.40;;;5.30;1.00;;;;;;4953029;28;20450;-69
2021/12/07 06:38:59;;;;;;;3.63;1.03;;;5.30;1.00;;;;;;4952939;28;20921;-69
2021/12/07 06:41:27;;;;;;;0.83;0.60;;;5.30;1.00;;;;;;4953000;28;20457;-68
2021/12/07 06:43:55;;;;;;;0.50;0.10;;;5.30;1.00;;;;;;4952819;28;20452;-69
2021/12/07 06:46:23;;;;;;;2.30;2.13;;;5.20;1.00;;;;;;4952657;28;20510;-69
2021/12/07 06:48:52;;;;;;;0.60;0.30;;;5.30;1.00;;;;;;4950977;28;20991;-71
2021/12/07 06:51:21;;;;;;;0.80;0.63;;;5.30;1.00;;;;;;4952867;29;20444;-70
2021/12/07 06:53:48;;;;;;;0.50;0.10;;;5.20;1.00;;;;;;4954684;28;20467;-69
2021/12/07 06:56:16;;;;;;;1.70;1.60;;;5.20;1.00;;;;;;4951254;28;20463;-70
2021/12/07 06:58:44;;;;;;;0.50;0.10;;;5.30;1.00;;;;;;4953422;28;20472;-68
2021/12/07 07:01:12;;;;;;;0.80;0.60;;;5.30;1.00;;;;;;4952002;28;20467;-68
2021/12/07 07:03:42;;;;;;;0.50;0.30;;;5.30;1.00;;;;;;4953671;28;20476;-69
2021/12/07 07:06:11;;;;;;;1.23;0.47;;;5.30;1.00;;;;;;4948342;28;20494;-69
2021/12/07 07:08:39;;;;;;;0.50;0.23;;;5.40;1.00;;;;;;4953351;28;20471;-68
2021/12/07 07:11:07;;;;;;;0.50;0.10;;;5.40;1.00;;;;;;4950788;28;20440;-69
2021/12/07 07:13:35;;;;;;;0.50;0.20;;;5.30;1.00;;;;;;4953595;28;21001;-70
2021/12/07 07:16:06;;;;;;;0.50;0.20;;;5.40;1.00;;;;;;4955987;28;20465;-69
2021/12/07 07:18:35;;;;;;;0.50;0.10;;;5.40;1.00;;;;;;4953973;28;20470;-69
2021/12/07 07:21:03;;;;;;;0.63;0.63;;;5.40;1.00;;;;;;4953254;28;20455;-70
2021/12/07 07:23:34;;;;;;;3.23;1.07;;;5.40;1.00;;;;;;4953045;28;20499;-69
2021/12/07 07:26:03;;;;;;;0.63;0.33;;;7.50;1.00;;;;;;4971432;28;20448;-69
2021/12/07 07:28:33;;;;;;;0.50;0.20;;;5.30;1.00;;;;;;4954105;28;21050;-68
2021/12/07 07:31:03;;;;;;;1.70;0.83;;;5.30;1.00;;;;;;4952537;28;20453;-69
2021/12/07 07:33:31;;;;;;;2.00;1.30;;;5.30;1.00;;;;;;4953161;28;20452;-70
2021/12/07 07:36:00;;;;;;;0.60;0.40;;;5.30;1.00;;;;;;4967191;28;20878;-70
2021/12/07 07:38:28;;;;;;;1.73;1.23;;;5.30;1.00;;;;;;4957672;28;20570;-69
2021/12/07 07:40:58;;;;;;;0.50;0.20;;;5.20;1.00;;;;;;4953830;28;20545;-69
2021/12/07 07:43:26;;;;;;;0.67;0.60;;;5.20;1.00;;;;;;4953435;28;20489;-69
2021/12/07 07:45:54;;;;;;;2.00;0.60;;;5.20;1.00;;;;;;4952289;28;20842;-69
2021/12/07 07:48:23;;;;;;;0.60;0.30;;;5.20;1.00;;;;;;4953851;29;20491;-69
2021/12/07 07:50:52;;;;;;;1.27;0.57;;;5.30;1.00;;;;;;4955158;28;20448;-71
2021/12/07 07:53:21;;;;;;;0.90;0.63;;;5.20;1.00;;;;;;4954415;28;20446;-69
2021/12/07 07:55:49;;;;;;;0.60;0.20;;;5.30;1.00;;;;;;4954874;28;20494;-69
2021/12/07 07:58:19;;;;;;;0.60;0.30;;;4.80;1.00;;;;;;4954394;28;20511;-69
2021/12/07 08:00:48;;;;;;;0.90;0.90;;;5.20;1.00;;;;;;4953668;28;20446;-69
2021/12/07 08:03:16;;;;;;;0.87;0.87;;;5.20;1.00;;;;;;4953590;28;20466;-67
2021/12/07 08:05:45;;;;;;;0.53;0.20;;;5.20;1.00;;;;;;4952756;28;20485;-69
2021/12/07 08:08:13;;;;;;;0.50;0.10;;;5.20;1.00;;;;;;4954596;28;20491;-69
2021/12/07 08:10:41;;;;;;;0.60;0.40;;;;;;;;;;4948728;28;20475;-68
2021/12/07 08:13:10;;;;;;;0.60;0.23;;;5.20;1.00;;;;;;4945260;28;20471;-69
2021/12/07 08:15:43;;;;;;;0.50;0.20;;;5.20;1.00;;;;;;4947352;28;20492;-70
2021/12/07 08:18:12;;;;;;;0.50;0.20;;;5.30;1.00;;;;;;4954091;29;20459;-70
2021/12/07 08:20:42;;;;;;;0.50;0.10;;;5.30;1.00;;;;;;4949810;29;20509;-69
2021/12/07 08:23:10;;;;;;;0.50;0.10;;;5.30;1.00;;;;;;4947078;28;20524;-71
2021/12/07 08:25:43;;;;;;;0.50;0.10;;;5.30;1.00;;;;;;4953711;28;20482;-69
2021/12/07 08:28:13;;;;;;;0.50;0.10;;;5.40;1.00;;;;;;4952636;28;20488;-70
2021/12/07 08:30:43;;;;;;;0.50;0.10;;;5.40;1.00;;;;;;4953014;28;20450;-70
2021/12/07 08:33:12;;;;;;;0.60;0.60;;;5.50;1.00;;;;;;4950655;28;20446;-69
2021/12/07 08:35:40;;;;;;;0.50;0.10;;;5.60;1.00;;;;;;4951316;28;20493;-70
2021/12/07 08:40:42;;;;;;;0.50;0.20;;;5.60;1.00;;;;;;4987430;28;20979;-66
2021/12/07 08:43:12;;;;;;;0.50;0.10;;;5.60;1.00;;;;;;4989860;28;20797;-69
2021/12/07 08:45:41;;;;;;;0.50;0.17;;;5.50;1.00;;;;;;4981249;28;20465;-67
2021/12/07 08:48:11;;;;;;;0.50;0.20;;;5.50;1.00;;;;;;4985236;28;20482;-68
2021/12/07 08:50:41;;;;;;;10.00;1.37;;;5.50;1.00;;;;;;4992350;28;20450;-69
2021/12/07 08:53:12;;;;;;;1.50;1.30;;;5.50;1.00;;;;;;4990931;28;20457;-66
2021/12/07 09:01:13;;;;;;;3.03;2.83;;;5.50;1.00;;;;;;4989086;28;20448;-66
2021/12/07 09:03:43;;;;;;;0.70;0.20;;;6.80;1.00;;;;;;4989348;28;20441;-67
2021/12/07 09:06:11;;;;;;;0.50;0.20;;;5.50;1.00;;;;;;4999332;28;20507;-65
2021/12/07 09:08:40;;;;;;;0.50;0.10;;;5.60;1.00;;;;;;4993430;28;20486;-66
2021/12/07 09:11:11;;;;;;;0.50;0.10;;;5.50;1.00;;;;;;4988724;28;20462;-66
2021/12/07 09:13:39;;;;;;;3.20;0.73;;;5.60;1.00;;;;;;4987629;28;20519;-66
2021/12/07 09:16:08;;;;;;;24.37;1.03;;;5.50;1.00;;;;;;4988554;28;20455;-65
2021/12/07 09:18:37;;;;;;;4.83;1.37;;;5.50;1.00;;;;;;4989346;28;20968;-65
2021/12/07 09:21:06;;;;;;;0.50;0.20;;;5.50;1.00;;;;;;4989740;28;20847;-66
2021/12/07 09:23:34;;;;;;;1.93;0.93;;;5.50;1.00;;;;;;4988421;28;20458;-65
2021/12/07 09:26:04;;;;;;;1.07;0.30;;;5.60;1.00;;;;;;4988901;28;20470;-66
2021/12/07 09:28:35;;;;;;;0.70;0.53;;;5.60;1.00;;;;;;4999514;28;20972;-66
2021/12/07 09:31:04;;;;;;;0.60;0.40;;;5.60;1.00;;;;;;4999367;28;20445;-65
2021/12/07 09:33:32;;;;;;;0.80;0.33;;;5.60;1.00;;;;;;4991740;28;20480;-66
2021/12/07 09:36:01;;;;;;;0.60;0.43;;;5.60;1.00;;;;;;4981998;28;20467;-66
2021/12/07 09:38:30;;;;;;;1.03;0.90;;;5.60;1.00;;;;;;4988973;28;20992;-65
2021/12/07 09:40:59;;;;;;;0.50;0.10;;;5.60;1.00;;;;;;4996634;28;20471;-66
2021/12/07 09:43:27;;;;;;;1.47;1.00;;;5.60;1.00;;;;;;5004606;28;20460;-66
2021/12/07 09:45:55;;;;;;;1.03;0.37;;;5.60;1.00;;;;;;4995899;28;20457;-66
2021/12/07 09:48:24;;;;;;;1.47;0.87;;;5.60;1.00;;;;;;4991973;28;20478;-72
2021/12/07 09:50:54;;;;;;;6.13;0.93;;;5.60;1.00;;;;;;4991751;28;20450;-66
2021/12/07 09:53:24;;;;;;;0.70;0.40;;;5.70;1.00;;;;;;4992451;28;20498;-68
2021/12/07 09:56:00;;;;;;;0.90;0.60;;;5.70;1.00;;;;;;4992157;28;20451;-66
2021/12/07 09:58:28;;;;;;;0.60;0.20;;;5.70;1.00;;;;;;4992095;28;20783;-66
2021/12/07 10:00:57;;;;;;;0.60;0.30;;;5.70;1.00;;;;;;4991646;28;20783;-66
2021/12/07 10:03:26;;;;;;;0.60;0.23;;;5.70;1.00;;;;;;4990006;28;20471;-67
2021/12/07 10:05:55;;;;;;;0.90;0.40;;;5.80;1.00;;;;;;4982411;28;20461;-66
2021/12/07 10:08:23;;;;;;;0.60;0.50;;;5.80;1.00;;;;;;4995285;28;20474;-66
2021/12/07 10:10:55;;;;;;;0.50;0.20;;;5.80;1.00;;;;;;4994101;28;20453;-66
2021/12/07 10:13:27;;;;;;;0.50;0.20;;;5.80;1.00;;;;;;4991916;28;20447;-66
2021/12/07 10:15:57;;;;;;;4.13;1.63;;;5.90;1.00;;;;;;4991575;28;20768;-65
2021/12/07 10:18:28;;;;;;;0.50;0.20;;;5.80;1.00;;;;;;4991738;28;22639;-66
2021/12/07 10:21:10;;;;;;;0.50;0.10;;;5.80;1.00;;;;;;4990770;28;20798;-66
2021/12/07 10:23:42;;;;;;;1.80;1.23;;;5.80;1.00;;;;;;4999703;28;20984;-65
2021/12/07 10:26:12;;;;;;;0.97;0.83;;;5.80;1.00;;;;;;5001033;28;20845;-66
2021/12/07 10:28:44;;;;;;;0.50;0.20;;;5.90;1.00;;;;;;4992811;28;20483;-65
2021/12/07 10:31:26;;;;;;;0.70;0.47;;;5.90;1.00;;;;;;4989730;28;20527;-65
2021/12/07 10:33:58;;;;;;;1.43;1.17;;;6.00;1.00;;;;;;4995308;28;20561;-66
2021/12/07 10:36:30;;;;;;;0.50;0.10;;;6.00;1.00;;;;;;4994347;28;20957;-66
2021/12/07 10:39:04;;;;;;;0.60;0.30;;;6.00;1.00;;;;;;4991398;28;20729;-66
2021/12/07 10:41:33;;;;;;;0.50;0.10;;;5.90;1.00;;;;;;4998178;28;20455;-66
2021/12/07 10:44:05;;;;;;;0.60;0.30;;;5.90;1.00;;;;;;5000961;28;20438;-66
2021/12/07 10:46:43;;;;;;;0.57;0.20;;;6.00;1.00;;;;;;5006254;28;20520;-66
2021/12/07 10:49:16;;;;;;;1.27;0.80;;;6.00;1.00;;;;;;4988965;28;20908;-67
2021/12/07 10:52:00;;;;;;;0.53;0.17;;;6.00;1.00;;;;;;5000403;28;20949;-66
2021/12/07 10:54:31;;;;;;;0.90;0.33;;;6.00;1.00;;;;;;4989525;28;20543;-68
2021/12/07 10:57:02;;;;;;;0.50;0.10;;;6.10;1.00;;;;;;4991096;28;20444;-65
2021/12/07 10:59:32;;;;;;;4.70;0.97;;;6.00;1.00;;;;;;4990904;28;20469;-66
2021/12/07 11:02:12;;;;;;;0.60;0.30;;;6.00;1.00;;;;;;4991286;28;20446;-66
2021/12/07 11:04:41;;;;;;;0.60;0.40;;;6.00;1.00;;;;;;4991094;28;20439;-67
2021/12/07 11:07:16;;;;;;;0.50;0.10;;;6.00;1.00;;;;;;4991208;28;20542;-67
2021/12/07 11:09:55;;;;;;;0.50;0.20;;;6.00;1.00;;;;;;5000813;28;20830;-66
2021/12/07 11:12:24;;;;;;;0.90;0.43;;;6.10;1.00;;;;;;4970547;28;20458;-66
2021/12/07 11:14:58;;;;;;;0.60;0.40;;;6.10;1.00;;;;;;4970051;28;20456;-67
2021/12/07 11:17:28;;;;;;;0.50;0.20;;;6.10;1.00;;;;;;4970730;28;20547;-67
2021/12/07 11:19:57;;;;;;;0.50;0.30;;;6.00;1.00;;;;;;4970263;28;20468;-66
2021/12/07 11:22:27;;;;;;;0.97;0.93;;;6.00;1.00;;;;;;4979233;28;20918;-65
2021/12/07 11:24:56;;;;;;;0.50;0.10;;;6.00;1.00;;;;;;4990311;28;20533;-66
2021/12/07 11:30:15;;;;;;;0.97;0.87;;;5.90;1.00;;;;;;4990665;28;20596;-66
2021/12/07 11:32:45;;;;;;;0.50;0.20;;;6.00;1.00;;;;;;4990732;28;20776;-66
2021/12/07 11:35:18;;;;;;;0.50;0.20;;;6.10;1.00;;;;;;4990551;28;20552;-67
2021/12/07 11:37:47;;;;;;;1.90;1.40;;;6.30;1.00;;;;;;4990714;28;20447;-66
2021/12/07 11:40:19;;;;;;;0.87;0.87;;;6.30;1.00;;;;;;4990168;28;20633;-68
2021/12/07 11:42:47;;;;;;;0.60;0.27;;;6.40;1.00;;;;;;4987511;28;20829;-66
2021/12/07 11:45:18;;;;;;;0.50;0.30;;;6.50;1.00;;;;;;4974181;28;20478;-67
2021/12/07 11:47:49;;;;;;;0.50;0.20;;;6.60;1.00;;;;;;4971375;28;20607;-66
2021/12/07 11:50:22;;;;;;;0.50;0.17;;;6.60;1.00;;;;;;4970666;28;20495;-66
2021/12/07 11:52:53;;;;;;;1.33;0.80;;;6.60;1.00;;;;;;4974502;28;20466;-66
2021/12/07 11:55:22;;;;;;;0.50;0.20;;;;;;;;;;4999434;28;20472;-66
2021/12/07 11:57:51;;;;;;;0.50;0.10;;;6.60;1.00;;;;;;4991878;28;20456;-67
2021/12/07 12:00:24;;;;;;;1.00;0.40;;;6.60;1.00;;;;;;4983338;28;20460;-66
2021/12/07 12:02:52;;;;;;;0.50;0.30;;;6.70;1.00;;;;;;4987561;28;20438;-67
2021/12/07 12:05:20;;;;;;;1.37;1.13;;;6.70;1.00;;;;;;4990048;28;20450;-67
2021/12/07 12:07:50;;;;;;;0.50;0.10;;;6.70;1.00;;;;;;4998303;28;20451;-67
2021/12/07 12:10:20;;;;;;;0.50;0.10;;;6.60;1.00;;;;;;5009212;28;20478;-67
2021/12/07 12:13:07;;;;;;;0.80;0.50;;;6.60;1.00;;;;;;5009669;28;20800;-67
2021/12/07 12:15:47;;;;;;;0.50;0.10;;;6.70;1.00;;;;;;4970661;28;20464;-66
2021/12/07 12:18:28;;;;;;;11.93;0.87;;;6.60;1.00;;;;;;4970597;28;20451;-67
2021/12/07 12:21:07;;;;;;;0.60;0.40;;;6.60;1.00;;;;;;4970393;28;20951;-68
2021/12/07 12:23:48;;;;;;;5.33;0.83;;;6.70;1.00;;;;;;4988211;28;20444;-65
2021/12/07 12:26:22;;;;;;;0.50;0.20;;;6.70;1.00;;;;;;4989385;28;20939;-66
2021/12/07 12:28:51;;;;;;;0.50;0.10;;;6.70;1.00;;;;;;4994886;28;21055;-66
2021/12/07 12:31:41;;;;;;;0.60;0.20;;;6.80;1.00;;;;;;5000542;28;20458;-66
2021/12/07 12:34:17;;;;;;;1.27;0.60;;;6.70;1.00;;;;;;5002456;28;20448;-67
2021/12/07 12:36:57;;;;;;;0.83;0.50;;;6.70;1.00;;;;;;4989622;28;20450;-66
2021/12/07 12:39:41;;;;;;;0.97;0.93;;;6.60;1.00;;;;;;4989658;28;20485;-66
2021/12/07 12:42:10;;;;;;;0.50;0.20;;;6.60;1.00;;;;;;4987701;28;20561;-66
2021/12/07 12:44:38;;;;;;;0.60;0.30;;;6.50;1.00;;;;;;4998395;28;20441;-67
2021/12/07 12:47:08;;;;;;;0.50;0.10;;;6.60;1.00;;;;;;4989395;28;20474;-66
2021/12/07 12:49:40;;;;;;;0.70;0.70;;;6.60;1.00;;;;;;4989598;28;20478;-66
2021/12/07 12:52:09;;;;;;;0.50;0.10;;;6.70;1.00;;;;;;4997647;28;20442;-66
2021/12/07 12:54:43;;;;;;;0.60;0.40;;;6.80;1.00;;;;;;4989556;28;20448;-67
2021/12/07 12:57:13;;;;;;;0.50;0.10;;;9.00;1.00;;;;;;4987208;28;20497;-66
2021/12/07 12:59:43;;;;;;;0.50;0.10;;;6.90;1.00;;;;;;4987994;28;20480;-67
2021/12/07 13:02:14;;;;;;;0.60;0.20;;;7.00;1.00;;;;;;4985565;28;20480;-65
2021/12/07 13:04:42;;;;;;;2.80;0.50;;;7.10;1.00;;;;;;4988843;28;20451;-66
2021/12/07 13:07:24;;;;;;;0.60;0.30;;;7.10;1.00;;;;;;4982375;28;20516;-66
2021/12/07 13:09:57;;;;;;;0.50;0.20;;;7.00;1.00;;;;;;4987998;28;20484;-66
2021/12/07 13:12:28;;;;;;;0.50;0.30;;;6.90;1.00;;;;;;4990509;28;20539;-65
2021/12/07 13:14:59;;;;;;;0.50;0.10;;;6.90;1.00;;;;;;4989704;28;20448;-66
2021/12/07 13:17:35;;;;;;;0.50;0.20;;;7.00;1.00;;;;;;4993197;28;20462;-67
2021/12/07 13:20:25;;;;;;;0.60;0.20;;;7.10;1.00;;;;;;4997895;28;20600;-67
2021/12/07 13:22:57;;;;;;;0.50;0.10;;;7.20;1.00;;;;;;4994848;28;20473;-68
2021/12/07 13:25:30;;;;;;;0.60;0.20;;;7.20;1.00;;;;;;4988657;28;20456;-67
2021/12/07 13:28:14;;;;;;;0.50;0.10;;;7.20;1.00;;;;;;4998851;28;20442;-67
2021/12/07 13:31:14;;;;;;;0.60;0.20;;;7.20;1.00;;;;;;4994629;28;20516;-65
2021/12/07 13:33:50;;;;;;;3.43;0.30;;;6.90;1.00;;;;;;4996085;28;20474;-68
2021/12/07 13:36:36;;;;;;;0.50;0.10;;;6.70;1.00;;;;;;4988877;28;20442;-66
2021/12/07 13:39:44;;;;;;;0.50;0.10;;;6.70;1.00;;;;;;4987298;28;20479;-65
2021/12/07 13:42:26;;;;;;;0.50;0.20;;;6.70;1.00;;;;;;4985739;28;20462;-66
2021/12/07 13:44:58;;;;;;;1.37;1.27;;;6.60;1.00;;;;;;4988823;28;20453;-67
2021/12/07 13:47:28;;;;;;;0.50;0.30;;;6.60;1.00;;;;;;4988476;28;20743;-67
2021/12/07 13:50:00;;;;;;;0.70;0.30;;;6.60;1.00;;;;;;4988429;28;20534;-65
2021/12/07 13:52:30;;;;;;;0.60;0.20;;;6.60;1.00;;;;;;4989125;28;20458;-67
2021/12/07 13:55:00;;;;;;;4.10;1.40;;;6.60;1.00;;;;;;4986935;28;20545;-66
2021/12/07 13:57:30;;;;;;;0.50;0.10;;;6.50;1.00;;;;;;4987814;28;20447;-65
2021/12/07 14:00:03;;;;;;;0.50;0.10;;;6.50;1.00;;;;;;4987935;28;20462;-67
2021/12/07 14:02:31;;;;;;;0.50;0.10;;;6.50;1.00;;;;;;4988189;28;20970;-67
2021/12/07 14:05:08;;;;;;;0.50;0.10;;;6.60;1.00;;;;;;4988199;28;20470;-67
2021/12/07 14:07:37;;;;;;;0.50;0.20;;;6.70;1.00;;;;;;4989017;28;20809;-66
2021/12/07 14:10:08;;;;;;;0.50;0.10;;;6.70;1.00;;;;;;4970435;28;20484;-68
2021/12/07 14:12:36;;;;;;;0.50;0.10;;;6.70;1.00;;;;;;4968291;28;20534;-68
2021/12/07 14:15:15;;;;;;;0.50;0.10;;;6.70;1.00;;;;;;4969634;28;20457;-66
2021/12/07 14:17:50;;;;;;;0.50;0.10;;;6.70;1.00;;;;;;4972232;28;20473;-66
2021/12/07 14:20:37;;;;;;;0.50;0.10;;;6.70;1.00;;;;;;4971998;28;20463;-66
2021/12/07 14:23:20;;;;;;;0.80;0.23;;;6.80;1.00;;;;;;4985402;28;20443;-67
2021/12/07 14:25:52;;;;;;;0.50;0.10;;;6.80;1.00;;;;;;4975772;28;20460;-67
2021/12/07 14:28:26;;;;;;;0.50;0.10;;;6.80;1.00;;;;;;4972149;28;20449;-67
2021/12/07 14:30:58;;;;;;;0.50;0.10;;;6.80;1.00;;;;;;4971712;28;20491;-67
2021/12/07 14:33:26;;;;;;;0.50;0.10;;;6.90;1.00;;;;;;4971858;28;20444;-67
2021/12/07 14:35:57;;;;;;;0.50;0.10;;;6.90;1.00;;;;;;4971592;28;20471;-67
2021/12/07 14:38:29;;;;;;;0.50;0.10;;;7.00;1.00;;;;;;4971532;28;20510;-67
2021/12/07 14:41:02;;;;;;;0.50;0.10;;;7.00;1.00;;;;;;5058855;23;20500;-69
2021/12/07 14:43:30;;;;;;;0.50;0.10;;;6.90;1.00;;;;;;5035343;28;20541;-69
2021/12/07 14:46:00;;;;;;;0.50;0.10;;;6.90;1.00;;;;;;5035663;28;20442;-69
2021/12/07 14:48:28;;;;;;;0.50;0.10;;;7.00;1.00;;;;;;5036239;28;20987;-69
2021/12/07 14:51:04;;;;;;;0.50;0.10;;;7.00;1.00;;;;;;5035899;28;20485;-69
2021/12/07 14:53:34;;;;;;;0.50;0.10;;;7.00;1.00;;;;;;5035978;28;20533;-69
2021/12/07 14:56:06;;;;;;;0.50;0.10;;;7.00;1.00;;;;;;5037356;28;20453;-70